createdAt,value
2019-02-24T00:00:28.676Z,0.00
2019-02-24T00:01:28.690Z,0.00
2019-02-24T00:02:28.648Z,0.00
2019-02-24T00:03:28.647Z,0.00
2019-02-24T00:04:28.627Z,0.00
2019-02-24T00:05:28.617Z,0.00
2019-02-24T00:06:28.606Z,0.00
2019-02-24T00:07:28.629Z,0.00
2019-02-24T00:08:28.599Z,0.00
2019-02-24T00:09:28.569Z,0.00
2019-02-24T00:10:28.564Z,0.00
2019-02-24T00:11:28.546Z,0.00
2019-02-24T00:12:28.605Z,0.00
2019-02-24T00:13:28.532Z,0.00
2019-02-24T00:14:28.526Z,0.00
2019-02-24T00:15:28.506Z,0.00
2019-02-24T00:16:28.499Z,0.00
2019-02-24T00:17:28.486Z,0.00
2019-02-24T00:18:28.518Z,0.00
2019-02-24T00:19:28.466Z,0.00
2019-02-24T00:20:28.458Z,0.00
2019-02-24T00:21:28.439Z,0.00
2019-02-24T00:22:28.433Z,0.00
2019-02-24T00:23:28.431Z,0.00
2019-02-24T00:24:30.136Z,0.00
2019-02-24T00:25:28.422Z,0.00
2019-02-24T00:26:28.400Z,0.00
2019-02-24T00:27:28.381Z,0.00
2019-02-24T00:28:28.365Z,0.00
2019-02-24T00:29:28.434Z,0.00
2019-02-24T00:30:28.378Z,0.00
2019-02-24T00:31:28.359Z,0.00
2019-02-24T00:32:28.333Z,0.00
2019-02-24T00:33:28.304Z,0.00
2019-02-24T00:34:28.306Z,0.00
2019-02-24T00:35:28.317Z,0.00
2019-02-24T00:36:28.304Z,0.00
2019-02-24T00:37:28.301Z,0.00
2019-02-24T00:38:28.256Z,0.00
2019-02-24T00:39:28.248Z,0.00
2019-02-24T00:40:28.289Z,0.00
2019-02-24T00:41:28.232Z,0.00
2019-02-24T00:42:28.247Z,0.00
2019-02-24T00:43:28.257Z,0.00
2019-02-24T00:44:28.195Z,0.00
2019-02-24T00:45:28.183Z,0.00
2019-02-24T00:46:28.173Z,0.00
2019-02-24T00:47:28.184Z,0.00
2019-02-24T00:48:28.181Z,0.00
2019-02-24T00:49:28.180Z,0.00
2019-02-24T00:50:28.192Z,0.00
2019-02-24T00:51:28.111Z,0.00
2019-02-24T00:52:28.107Z,0.00
2019-02-24T00:53:28.120Z,0.00
2019-02-24T00:54:28.122Z,0.00
2019-02-24T00:55:28.086Z,0.00
2019-02-24T00:56:28.053Z,0.00
2019-02-24T00:57:28.054Z,0.00
2019-02-24T00:58:28.040Z,0.00
2019-02-24T00:59:28.035Z,0.00
2019-02-24T01:00:28.080Z,0.00
2019-02-24T01:01:28.016Z,0.00
2019-02-24T01:02:27.989Z,0.00
2019-02-24T01:03:27.989Z,0.00
2019-02-24T01:04:27.988Z,0.00
2019-02-24T01:05:27.984Z,0.00
2019-02-24T01:06:27.999Z,0.00
2019-02-24T01:07:27.948Z,0.00
2019-02-24T01:08:27.927Z,0.00
2019-02-24T01:09:27.918Z,0.00
2019-02-24T01:10:27.913Z,0.00
2019-02-24T01:11:27.926Z,0.00
2019-02-24T01:12:27.955Z,0.00
2019-02-24T01:13:27.872Z,0.00
2019-02-24T01:14:27.869Z,0.00
2019-02-24T01:15:27.860Z,0.00
2019-02-24T01:16:27.859Z,0.00
2019-02-24T01:17:27.832Z,0.00
2019-02-24T01:18:27.924Z,0.00
2019-02-24T01:19:27.821Z,0.00
2019-02-24T01:20:27.800Z,0.00
2019-02-24T01:21:27.804Z,0.00
2019-02-24T01:22:27.797Z,0.00
2019-02-24T01:23:27.768Z,0.00
2019-02-24T01:24:27.826Z,0.00
2019-02-24T01:25:27.831Z,0.00
2019-02-24T01:26:27.729Z,0.00
2019-02-24T01:27:27.733Z,0.00
2019-02-24T01:28:27.721Z,0.00
2019-02-24T01:29:27.710Z,0.00
2019-02-24T01:30:27.691Z,0.00
2019-02-24T01:31:27.760Z,0.00
2019-02-24T01:32:27.665Z,0.00
2019-02-24T01:33:27.741Z,0.00
2019-02-24T01:34:27.676Z,0.00
2019-02-24T01:35:27.635Z,0.00
2019-02-24T01:36:27.616Z,0.00
2019-02-24T01:37:27.692Z,0.00
2019-02-24T01:38:27.604Z,0.00
2019-02-24T01:39:27.606Z,0.00
2019-02-24T01:40:27.582Z,0.00
2019-02-24T01:41:27.682Z,0.00
2019-02-24T01:42:27.566Z,0.00
2019-02-24T01:43:27.580Z,0.00
2019-02-24T01:44:27.539Z,0.00
2019-02-24T01:45:27.531Z,0.00
2019-02-24T01:46:27.530Z,0.00
2019-02-24T01:47:27.519Z,0.00
2019-02-24T01:48:27.495Z,0.00
2019-02-24T01:49:27.523Z,0.00
2019-02-24T01:50:27.539Z,0.00
2019-02-24T01:51:27.493Z,0.00
2019-02-24T01:52:27.446Z,0.00
2019-02-24T01:53:27.443Z,0.00
2019-02-24T01:54:27.430Z,0.00
2019-02-24T01:55:27.415Z,0.00
2019-02-24T01:56:27.456Z,0.00
2019-02-24T01:57:27.403Z,0.00
2019-02-24T01:58:34.945Z,0.00
2019-02-24T01:59:28.386Z,0.00
2019-02-24T02:00:27.396Z,0.00
2019-02-24T02:01:27.355Z,0.00
2019-02-24T02:02:27.359Z,0.00
2019-02-24T02:03:27.343Z,0.00
2019-02-24T02:04:27.359Z,0.00
2019-02-24T02:05:27.317Z,0.00
2019-02-24T02:06:27.343Z,0.00
2019-02-24T02:07:27.402Z,0.00
2019-02-24T02:08:27.292Z,0.00
2019-02-24T02:09:27.274Z,0.00
2019-02-24T02:10:27.267Z,0.00
2019-02-24T02:11:27.241Z,0.00
2019-02-24T02:12:27.237Z,0.00
2019-02-24T02:13:27.269Z,0.00
2019-02-24T02:14:27.217Z,0.00
2019-02-24T02:15:27.224Z,0.00
2019-02-24T02:16:27.189Z,0.00
2019-02-24T02:17:27.209Z,0.00
2019-02-24T02:18:27.212Z,0.00
2019-02-24T02:19:27.205Z,0.00
2019-02-24T02:20:27.184Z,0.00
2019-02-24T02:21:27.161Z,0.00
2019-02-24T02:22:27.131Z,0.00
2019-02-24T02:23:27.125Z,0.00
2019-02-24T02:24:27.183Z,0.00
2019-02-24T02:25:27.091Z,0.00
2019-02-24T02:26:27.104Z,0.00
2019-02-24T02:27:27.062Z,0.00
2019-02-24T02:28:27.061Z,0.00
2019-02-24T02:29:27.046Z,0.00
2019-02-24T02:30:27.108Z,0.00
2019-02-24T02:31:27.025Z,0.00
2019-02-24T02:32:27.018Z,0.00
2019-02-24T02:33:27.013Z,0.00
2019-02-24T02:34:27.059Z,0.00
2019-02-24T02:35:27.022Z,0.00
2019-02-24T02:36:26.981Z,0.00
2019-02-24T02:37:27.034Z,0.00
2019-02-24T02:38:26.968Z,0.00
2019-02-24T02:39:26.936Z,0.00
2019-02-24T02:40:26.939Z,0.00
2019-02-24T02:41:27.055Z,0.00
2019-02-24T02:42:26.904Z,0.00
2019-02-24T02:43:26.910Z,0.00
2019-02-24T02:44:26.908Z,0.00
2019-02-24T02:45:26.913Z,0.00
2019-02-24T02:46:26.864Z,0.00
2019-02-24T02:47:26.887Z,0.00
2019-02-24T02:48:26.852Z,0.00
2019-02-24T02:49:26.846Z,0.00
2019-02-24T02:50:26.830Z,0.00
2019-02-24T02:51:26.817Z,0.00
2019-02-24T02:52:26.830Z,0.00
2019-02-24T02:53:26.823Z,0.00
2019-02-24T02:54:26.784Z,0.00
2019-02-24T02:55:29.433Z,0.00
2019-02-24T02:56:26.774Z,0.00
2019-02-24T02:57:26.804Z,0.00
2019-02-24T02:58:26.723Z,0.00
2019-02-24T02:59:26.718Z,0.00
2019-02-24T03:00:26.716Z,0.00
2019-02-24T03:01:26.716Z,0.00
2019-02-24T03:02:26.729Z,0.00
2019-02-24T03:03:26.677Z,0.00
2019-02-24T03:04:26.665Z,0.00
2019-02-24T03:05:26.652Z,0.00
2019-02-24T03:06:26.654Z,0.00
2019-02-24T03:07:26.756Z,0.00
2019-02-24T03:08:26.675Z,0.00
2019-02-24T03:09:26.634Z,0.00
2019-02-24T03:10:26.595Z,0.00
2019-02-24T03:11:26.591Z,0.00
2019-02-24T03:12:26.581Z,0.00
2019-02-24T03:13:26.579Z,0.00
2019-02-24T03:14:26.606Z,0.00
2019-02-24T03:15:26.547Z,0.00
2019-02-24T03:16:26.525Z,0.00
2019-02-24T03:17:26.516Z,0.00
2019-02-24T03:18:26.586Z,0.00
2019-02-24T03:19:26.513Z,0.00
2019-02-24T03:20:26.533Z,0.00
2019-02-24T03:21:26.537Z,0.00
2019-02-24T03:22:26.463Z,0.00
2019-02-24T03:23:26.466Z,0.00
2019-02-24T03:24:26.494Z,0.00
2019-02-24T03:25:26.449Z,0.00
2019-02-24T03:26:26.474Z,0.00
2019-02-24T03:27:26.448Z,0.00
2019-02-24T03:28:26.406Z,0.00
2019-02-24T03:29:26.392Z,0.00
2019-02-24T03:30:26.386Z,0.00
2019-02-24T03:31:26.376Z,0.00
2019-02-24T03:32:26.408Z,0.00
2019-02-24T03:33:26.345Z,0.00
2019-02-24T03:34:26.337Z,0.00
2019-02-24T03:35:26.352Z,0.00
2019-02-24T03:36:26.335Z,0.00
2019-02-24T03:37:26.311Z,0.00
2019-02-24T03:38:26.353Z,0.00
2019-02-24T03:39:26.276Z,0.00
2019-02-24T03:40:26.281Z,0.00
2019-02-24T03:41:26.263Z,0.00
2019-02-24T03:42:26.263Z,0.00
2019-02-24T03:43:26.240Z,0.00
2019-02-24T03:44:26.277Z,0.00
2019-02-24T03:45:26.220Z,0.00
2019-02-24T03:46:26.241Z,0.00
2019-02-24T03:47:26.196Z,0.00
2019-02-24T03:48:26.180Z,0.00
2019-02-24T03:49:26.235Z,0.00
2019-02-24T03:50:26.152Z,0.00
2019-02-24T03:51:26.157Z,0.00
2019-02-24T03:52:26.228Z,0.00
2019-02-24T03:53:26.151Z,0.00
2019-02-24T03:54:26.117Z,0.00
2019-02-24T03:55:26.117Z,0.00
2019-02-24T03:56:26.097Z,0.00
2019-02-24T03:57:26.084Z,0.00
2019-02-24T03:58:26.110Z,0.00
2019-02-24T03:59:26.067Z,0.00
2019-02-24T04:00:26.086Z,0.00
2019-02-24T04:01:26.039Z,0.00
2019-02-24T04:02:26.037Z,0.00
2019-02-24T04:03:26.022Z,0.00
2019-02-24T04:04:26.050Z,0.00
2019-02-24T04:05:25.991Z,0.00
2019-02-24T04:06:25.981Z,0.00
2019-02-24T04:07:25.972Z,0.00
2019-02-24T04:08:25.967Z,0.00
2019-02-24T04:09:25.949Z,0.00
2019-02-24T04:10:25.976Z,0.00
2019-02-24T04:11:25.942Z,0.00
2019-02-24T04:12:26.004Z,0.00
2019-02-24T04:13:25.896Z,0.00
2019-02-24T04:14:25.891Z,0.00
2019-02-24T04:15:25.894Z,0.00
2019-02-24T04:16:25.892Z,0.00
2019-02-24T04:17:25.863Z,0.00
2019-02-24T04:18:25.912Z,0.00
2019-02-24T04:19:25.846Z,0.00
2019-02-24T04:20:25.826Z,0.00
2019-02-24T04:21:25.832Z,0.00
2019-02-24T04:22:25.814Z,0.00
2019-02-24T04:23:25.846Z,0.00
2019-02-24T04:24:25.784Z,0.00
2019-02-24T04:25:25.894Z,0.00
2019-02-24T04:26:25.775Z,0.00
2019-02-24T04:27:25.767Z,0.00
2019-02-24T04:28:25.775Z,0.00
2019-02-24T04:29:25.787Z,0.00
2019-02-24T04:30:25.733Z,0.00
2019-02-24T04:31:25.716Z,0.00
2019-02-24T04:32:25.792Z,0.00
2019-02-24T04:33:25.714Z,0.00
2019-02-24T04:34:25.692Z,0.00
2019-02-24T04:35:25.733Z,0.00
2019-02-24T04:36:25.669Z,0.00
2019-02-24T04:37:25.638Z,0.00
2019-02-24T04:38:25.641Z,0.00
2019-02-24T04:39:25.683Z,0.00
2019-02-24T04:40:25.603Z,0.00
2019-02-24T04:41:25.656Z,0.00
2019-02-24T04:42:25.619Z,0.00
2019-02-24T04:43:25.589Z,0.00
2019-02-24T04:44:25.566Z,0.00
2019-02-24T04:45:25.572Z,0.00
2019-02-24T04:46:25.614Z,0.00
2019-02-24T04:47:25.538Z,0.00
2019-02-24T04:48:25.524Z,0.00
2019-02-24T04:49:25.524Z,0.00
2019-02-24T04:50:25.507Z,0.00
2019-02-24T04:51:25.598Z,0.00
2019-02-24T04:52:25.509Z,0.00
2019-02-24T04:53:25.467Z,0.00
2019-02-24T04:54:25.475Z,0.00
2019-02-24T04:55:25.522Z,0.00
2019-02-24T04:56:25.439Z,0.00
2019-02-24T04:57:25.434Z,0.00
2019-02-24T04:58:25.423Z,0.00
2019-02-24T04:59:34.574Z,0.00
2019-02-24T05:00:26.423Z,0.00
2019-02-24T05:01:25.381Z,0.00
2019-02-24T05:02:25.385Z,0.00
2019-02-24T05:03:25.363Z,0.00
2019-02-24T05:04:25.405Z,0.00
2019-02-24T05:05:25.331Z,0.00
2019-02-24T05:06:25.339Z,0.00
2019-02-24T05:07:25.317Z,0.00
2019-02-24T05:08:25.323Z,0.00
2019-02-24T05:09:25.339Z,0.00
2019-02-24T05:10:25.284Z,0.00
2019-02-24T05:11:25.293Z,0.00
2019-02-24T05:12:25.271Z,0.00
2019-02-24T05:13:25.255Z,0.00
2019-02-24T05:14:25.285Z,0.00
2019-02-24T05:15:25.306Z,0.00
2019-02-24T05:16:25.230Z,0.00
2019-02-24T05:17:25.945Z,0.00
2019-02-24T05:18:25.196Z,0.00
2019-02-24T05:19:25.188Z,0.00
2019-02-24T05:20:25.177Z,0.00
2019-02-24T05:21:25.212Z,0.00
2019-02-24T05:22:25.161Z,0.00
2019-02-24T05:23:25.131Z,0.00
2019-02-24T05:24:25.126Z,0.00
2019-02-24T05:25:25.219Z,0.00
2019-02-24T05:26:25.174Z,0.00
2019-02-24T05:27:25.091Z,0.00
2019-02-24T05:28:25.144Z,0.00
2019-02-24T05:29:25.075Z,0.00
2019-02-24T05:30:25.072Z,0.00
2019-02-24T05:31:25.054Z,0.00
2019-02-24T05:32:25.050Z,4.00
2019-02-24T05:33:25.046Z,4.00
2019-02-24T05:34:25.077Z,4.00
2019-02-24T05:35:25.050Z,4.00
2019-02-24T05:36:24.991Z,4.00
2019-02-24T05:37:24.994Z,4.00
2019-02-24T05:38:24.983Z,8.00
2019-02-24T05:39:25.099Z,8.00
2019-02-24T05:40:25.010Z,12.00
2019-02-24T05:41:24.943Z,12.00
2019-02-24T05:42:24.947Z,12.00
2019-02-24T05:43:24.926Z,12.00
2019-02-24T05:44:24.939Z,16.00
2019-02-24T05:45:24.924Z,20.00
2019-02-24T05:46:24.954Z,24.00
2019-02-24T05:47:24.880Z,28.00
2019-02-24T05:48:24.869Z,32.00
2019-02-24T05:49:24.865Z,40.00
2019-02-24T05:50:24.889Z,44.00
2019-02-24T05:51:24.841Z,56.00
2019-02-24T05:52:24.863Z,68.00
2019-02-24T05:53:24.835Z,76.00
2019-02-24T05:54:24.794Z,96.00
2019-02-24T05:55:24.817Z,108.00
2019-02-24T05:56:24.797Z,124.00
2019-02-24T05:57:24.771Z,140.00
2019-02-24T05:58:24.804Z,160.00
2019-02-24T05:59:24.749Z,180.00
2019-02-24T06:00:24.733Z,200.00
2019-02-24T06:01:24.728Z,216.00
2019-02-24T06:02:24.716Z,228.00
2019-02-24T06:03:24.760Z,244.00
2019-02-24T06:04:24.683Z,268.00
2019-02-24T06:05:24.675Z,288.00
2019-02-24T06:06:24.670Z,316.00
2019-02-24T06:07:24.675Z,336.00
2019-02-24T06:08:24.694Z,364.00
2019-02-24T06:09:24.661Z,396.00
2019-02-24T06:10:24.622Z,428.00
2019-02-24T06:11:24.606Z,464.00
2019-02-24T06:12:24.612Z,500.00
2019-02-24T06:13:24.605Z,536.00
2019-02-24T06:14:24.645Z,572.00
2019-02-24T06:15:24.570Z,608.00
2019-02-24T06:16:24.583Z,648.00
2019-02-24T06:17:24.546Z,684.00
2019-02-24T06:18:24.542Z,720.00
2019-02-24T06:19:24.549Z,756.00
2019-02-24T06:20:24.560Z,796.00
2019-02-24T06:21:24.495Z,840.00
2019-02-24T06:22:24.509Z,876.00
2019-02-24T06:23:24.498Z,912.00
2019-02-24T06:24:24.482Z,952.00
2019-02-24T06:25:24.497Z,980.00
2019-02-24T06:26:24.518Z,992.00
2019-02-24T06:27:24.440Z,1012.00
2019-02-24T06:28:24.476Z,1032.00
2019-02-24T06:29:24.416Z,1052.00
2019-02-24T06:30:24.424Z,1064.00
2019-02-24T06:31:24.407Z,1080.00
2019-02-24T06:32:24.386Z,1112.00
2019-02-24T06:33:24.379Z,1152.00
2019-02-24T06:34:24.398Z,1176.00
2019-02-24T06:35:24.392Z,1200.00
2019-02-24T06:36:24.355Z,1224.00
2019-02-24T06:37:24.339Z,1248.00
2019-02-24T06:38:24.313Z,1276.00
2019-02-24T06:39:24.317Z,1308.00
2019-02-24T06:40:24.287Z,1344.00
2019-02-24T06:41:24.333Z,1376.00
2019-02-24T06:42:24.274Z,1396.00
2019-02-24T06:43:24.279Z,1404.00
2019-02-24T06:44:24.244Z,1404.00
2019-02-24T06:45:24.295Z,1408.00
2019-02-24T06:46:24.229Z,1416.00
2019-02-24T06:47:24.239Z,1440.00
2019-02-24T06:48:24.227Z,1464.00
2019-02-24T06:49:24.192Z,1484.00
2019-02-24T06:50:24.185Z,1512.00
2019-02-24T06:51:24.215Z,1528.00
2019-02-24T06:52:24.174Z,1540.00
2019-02-24T06:53:24.231Z,1544.00
2019-02-24T06:54:24.159Z,1540.00
2019-02-24T06:55:24.130Z,1548.00
2019-02-24T06:56:24.128Z,1580.00
2019-02-24T06:57:24.108Z,1620.00
2019-02-24T06:58:24.157Z,1664.00
2019-02-24T06:59:24.108Z,1708.00
2019-02-24T07:00:24.072Z,1760.00
2019-02-24T07:01:24.069Z,1816.00
2019-02-24T07:02:24.070Z,1864.00
2019-02-24T07:03:24.082Z,1900.00
2019-02-24T07:04:24.072Z,1924.00
2019-02-24T07:05:24.033Z,1936.00
2019-02-24T07:06:24.008Z,1952.00
2019-02-24T07:07:23.992Z,1976.00
2019-02-24T07:08:24.002Z,2016.00
2019-02-24T07:09:23.989Z,2072.00
2019-02-24T07:10:24.011Z,2132.00
2019-02-24T07:11:23.970Z,2188.00
2019-02-24T07:12:23.944Z,2240.00
2019-02-24T07:13:23.931Z,2300.00
2019-02-24T07:14:23.925Z,2376.00
2019-02-24T07:15:24.001Z,2484.00
2019-02-24T07:16:23.992Z,2588.00
2019-02-24T07:17:23.896Z,2712.00
2019-02-24T07:18:23.886Z,2860.00
2019-02-24T07:19:23.870Z,3024.00
2019-02-24T07:20:23.874Z,3220.00
2019-02-24T07:21:23.878Z,3404.00
2019-02-24T07:22:23.954Z,3596.00
2019-02-24T07:23:23.819Z,3804.00
2019-02-24T07:24:23.822Z,3984.00
2019-02-24T07:25:23.835Z,4108.00
2019-02-24T07:26:23.805Z,4260.00
2019-02-24T07:27:23.783Z,4408.00
2019-02-24T07:28:23.894Z,4584.00
2019-02-24T07:29:28.656Z,4704.00
2019-02-24T07:30:23.935Z,4772.00
2019-02-24T07:31:23.745Z,4824.00
2019-02-24T07:32:23.753Z,4872.00
2019-02-24T07:33:23.769Z,4864.00
2019-02-24T07:34:23.771Z,4868.00
2019-02-24T07:35:23.737Z,4884.00
2019-02-24T07:36:23.686Z,4884.00
2019-02-24T07:37:23.679Z,4904.00
2019-02-24T07:38:23.671Z,4948.00
2019-02-24T07:39:23.675Z,5000.00
2019-02-24T07:40:23.710Z,5108.00
2019-02-24T07:41:23.631Z,5228.00
2019-02-24T07:42:23.623Z,5280.00
2019-02-24T07:43:23.624Z,5348.00
2019-02-24T07:44:23.602Z,5436.00
2019-02-24T07:45:23.599Z,5544.00
2019-02-24T07:46:23.621Z,5632.00
2019-02-24T07:47:23.617Z,5744.00
2019-02-24T07:48:23.591Z,5840.00
2019-02-24T07:49:23.540Z,5896.00
2019-02-24T07:50:23.542Z,5928.00
2019-02-24T07:51:23.534Z,5940.00
2019-02-24T07:52:23.512Z,6000.00
2019-02-24T07:53:23.541Z,5980.00
2019-02-24T07:54:23.519Z,6036.00
2019-02-24T07:55:23.513Z,6056.00
2019-02-24T07:56:38.458Z,6032.00
2019-02-24T07:57:23.474Z,6148.00
2019-02-24T07:58:23.505Z,6196.00
2019-02-24T07:59:23.517Z,6352.00
2019-02-24T08:00:31.746Z,6456.00
2019-02-24T08:01:24.424Z,6600.00
2019-02-24T08:02:23.403Z,6764.00
2019-02-24T08:03:23.512Z,6892.00
2019-02-24T08:04:23.507Z,7136.00
2019-02-24T08:05:23.384Z,7272.00
2019-02-24T08:06:23.359Z,7460.00
2019-02-24T08:07:23.360Z,7580.00
2019-02-24T08:08:23.460Z,7636.00
2019-02-24T08:09:23.398Z,7692.00
2019-02-24T08:10:23.345Z,7776.00
2019-02-24T08:11:23.341Z,7836.00
2019-02-24T08:12:23.297Z,7916.00
2019-02-24T08:13:23.299Z,8060.00
2019-02-24T08:14:23.317Z,8236.00
2019-02-24T08:15:23.377Z,8428.00
2019-02-24T08:16:23.253Z,8652.00
2019-02-24T08:17:23.239Z,8928.00
2019-02-24T08:18:23.233Z,9200.00
2019-02-24T08:19:23.226Z,9480.00
2019-02-24T08:20:23.262Z,9748.00
2019-02-24T08:21:23.203Z,10120.00
2019-02-24T08:22:23.192Z,10444.00
2019-02-24T08:23:23.194Z,10672.00
2019-02-24T08:24:23.190Z,10820.00
2019-02-24T08:25:23.159Z,10924.00
2019-02-24T08:26:23.197Z,11032.00
2019-02-24T08:27:23.148Z,11204.00
2019-02-24T08:28:23.126Z,11368.00
2019-02-24T08:29:23.105Z,11568.00
2019-02-24T08:30:23.098Z,11716.00
2019-02-24T08:31:23.094Z,12016.00
2019-02-24T08:32:23.129Z,12276.00
2019-02-24T08:33:23.090Z,12532.00
2019-02-24T08:34:23.060Z,12812.00
2019-02-24T08:35:23.056Z,12992.00
2019-02-24T08:36:23.045Z,13312.00
2019-02-24T08:37:23.057Z,13760.00
2019-02-24T08:38:23.061Z,13992.00
2019-02-24T08:39:23.017Z,14200.00
2019-02-24T08:40:23.004Z,14548.00
2019-02-24T08:41:23.043Z,14864.00
2019-02-24T08:42:22.971Z,15276.00
2019-02-24T08:43:22.964Z,21184.00
2019-02-24T08:44:22.963Z,21856.00
2019-02-24T08:45:22.968Z,33632.00
2019-02-24T08:46:22.935Z,19584.00
2019-02-24T08:47:22.998Z,32512.00
2019-02-24T08:48:22.991Z,56800.00
2019-02-24T08:49:22.891Z,54112.00
2019-02-24T08:50:22.900Z,53696.00
2019-02-24T08:51:23.470Z,53184.00
2019-02-24T08:52:22.864Z,52096.00
2019-02-24T08:53:22.858Z,40096.00
2019-02-24T08:54:22.889Z,51712.00
2019-02-24T08:55:22.836Z,50560.00
2019-02-24T08:56:22.845Z,50848.00
2019-02-24T08:57:22.818Z,42272.00
2019-02-24T08:58:22.801Z,47296.00
2019-02-24T08:59:22.804Z,47008.00
2019-02-24T09:00:22.857Z,46208.00
2019-02-24T09:01:22.792Z,47840.00
2019-02-24T09:02:22.765Z,49248.00
2019-02-24T09:03:22.788Z,49472.00
2019-02-24T09:04:22.756Z,49984.00
2019-02-24T09:05:22.716Z,51104.00
2019-02-24T09:06:22.705Z,52736.00
2019-02-24T09:07:22.731Z,53216.00
2019-02-24T09:08:22.689Z,54016.00
2019-02-24T09:09:22.721Z,55488.00
2019-02-24T09:10:22.752Z,57088.00
2019-02-24T09:11:22.658Z,57408.00
2019-02-24T09:12:22.642Z,57568.00
2019-02-24T09:13:22.648Z,56064.00
2019-02-24T09:14:22.627Z,55488.00
2019-02-24T09:15:22.607Z,55392.00
2019-02-24T09:16:22.686Z,56128.00
2019-02-24T09:17:22.629Z,56992.00
2019-02-24T09:18:22.997Z,57152.00
2019-02-24T09:19:22.587Z,56544.00
2019-02-24T09:20:22.559Z,56448.00
2019-02-24T09:21:22.542Z,56672.00
2019-02-24T09:22:22.617Z,56960.00
2019-02-24T09:23:22.583Z,55744.00
2019-02-24T09:24:22.566Z,54496.00
2019-02-24T09:25:22.711Z,55648.00
2019-02-24T09:26:22.544Z,57728.00
2019-02-24T09:27:22.498Z,58272.00
2019-02-24T09:28:22.555Z,57056.00
2019-02-24T09:29:22.458Z,56448.00
2019-02-24T09:30:22.574Z,57504.00
2019-02-24T09:31:22.422Z,56352.00
2019-02-24T09:32:22.453Z,55104.00
2019-02-24T09:33:22.598Z,55296.00
2019-02-24T09:34:23.141Z,54944.00
2019-02-24T09:35:22.394Z,57408.00
2019-02-24T09:36:22.530Z,60256.00
2019-02-24T09:37:22.370Z,59584.00
2019-02-24T09:38:22.367Z,58304.00
2019-02-24T09:39:22.401Z,58912.00
2019-02-24T09:40:22.348Z,59136.00
2019-02-24T09:41:22.332Z,59200.00
2019-02-24T09:42:22.366Z,59744.00
2019-02-24T09:43:22.290Z,60704.00
2019-02-24T09:44:22.283Z,60704.00
2019-02-24T09:45:22.344Z,60864.00
2019-02-24T09:46:22.272Z,61056.00
2019-02-24T09:47:22.301Z,60832.00
2019-02-24T09:48:22.269Z,60960.00
2019-02-24T09:49:22.230Z,62944.00
2019-02-24T09:50:22.410Z,63616.00
2019-02-24T09:51:22.304Z,63200.00
2019-02-24T09:52:22.235Z,62368.00
2019-02-24T09:53:22.248Z,62688.00
2019-02-24T09:54:22.198Z,61888.00
2019-02-24T09:55:22.206Z,61440.00
2019-02-24T09:56:22.151Z,63392.00
2019-02-24T09:57:22.136Z,64960.00
2019-02-24T09:58:22.232Z,63456.00
2019-02-24T09:59:22.144Z,60672.00
2019-02-24T10:00:22.200Z,61600.00
2019-02-24T10:01:22.088Z,63488.00
2019-02-24T10:02:22.122Z,63136.00
2019-02-24T10:03:22.073Z,61856.00
2019-02-24T10:04:22.110Z,60896.00
2019-02-24T10:05:22.139Z,61664.00
2019-02-24T10:06:22.066Z,62080.00
2019-02-24T10:07:22.055Z,62432.00
2019-02-24T10:08:22.044Z,63616.00
2019-02-24T10:09:22.000Z,64032.00
2019-02-24T10:10:22.021Z,64096.00
2019-02-24T10:11:22.053Z,64128.00
2019-02-24T10:12:21.972Z,62304.00
2019-02-24T10:13:21.975Z,61600.00
2019-02-24T10:14:21.952Z,62816.00
2019-02-24T10:15:21.998Z,63424.00
2019-02-24T10:16:21.944Z,62944.00
2019-02-24T10:17:22.005Z,62048.00
2019-02-24T10:18:21.951Z,62624.00
2019-02-24T10:19:21.902Z,63200.00
2019-02-24T10:20:21.891Z,62848.00
2019-02-24T10:21:21.921Z,62176.00
2019-02-24T10:22:21.887Z,61664.00
2019-02-24T10:23:21.953Z,61440.00
2019-02-24T10:24:21.856Z,60448.00
2019-02-24T10:25:21.825Z,58848.00
2019-02-24T10:26:21.813Z,58112.00
2019-02-24T10:27:21.816Z,56768.00
2019-02-24T10:28:22.087Z,56544.00
2019-02-24T10:29:21.842Z,56768.00
2019-02-24T10:30:22.286Z,59392.00
2019-02-24T10:31:22.112Z,62784.00
2019-02-24T10:32:22.039Z,62560.00
2019-02-24T10:33:21.823Z,60832.00
2019-02-24T10:34:21.975Z,58944.00
2019-02-24T10:35:21.789Z,58976.00
2019-02-24T10:36:21.707Z,59776.00
2019-02-24T10:37:21.702Z,60480.00
2019-02-24T10:38:22.229Z,60320.00
2019-02-24T10:39:29.499Z,59136.00
2019-02-24T10:40:22.925Z,59008.00
2019-02-24T10:41:21.800Z,58080.00
2019-02-24T10:42:21.786Z,58016.00
2019-02-24T10:43:21.893Z,57504.00
2019-02-24T10:44:21.635Z,57248.00
2019-02-24T10:45:22.407Z,56640.00
2019-02-24T10:46:21.877Z,57728.00
2019-02-24T10:47:21.605Z,59936.00
2019-02-24T10:48:21.573Z,58240.00
2019-02-24T10:49:21.657Z,55616.00
2019-02-24T10:50:22.647Z,54432.00
2019-02-24T10:51:21.563Z,56896.00
2019-02-24T10:52:21.536Z,58496.00
2019-02-24T10:53:21.541Z,58464.00
2019-02-24T10:54:21.984Z,59616.00
2019-02-24T10:55:21.895Z,61184.00
2019-02-24T10:56:21.887Z,60992.00
2019-02-24T10:57:21.499Z,60544.00
2019-02-24T10:58:21.606Z,59808.00
2019-02-24T10:59:21.723Z,59168.00
2019-02-24T11:00:21.519Z,59968.00
2019-02-24T11:01:29.228Z,60352.00
2019-02-24T11:02:22.452Z,59808.00
2019-02-24T11:03:21.438Z,58816.00
2019-02-24T11:04:21.628Z,61536.00
2019-02-24T11:05:21.669Z,63232.00
2019-02-24T11:06:21.849Z,64000.00
2019-02-24T11:07:21.400Z,62400.00
2019-02-24T11:08:21.380Z,59680.00
2019-02-24T11:09:21.403Z,58464.00
2019-02-24T11:10:21.378Z,57472.00
2019-02-24T11:11:21.333Z,58752.00
2019-02-24T11:12:21.550Z,60160.00
2019-02-24T11:13:21.533Z,60416.00
2019-02-24T11:14:21.315Z,59936.00
2019-02-24T11:15:21.335Z,59872.00
2019-02-24T11:16:21.266Z,61216.00
2019-02-24T11:17:21.526Z,61088.00
2019-02-24T11:18:21.258Z,60256.00
2019-02-24T11:19:21.255Z,62048.00
2019-02-24T11:20:21.257Z,63200.00
2019-02-24T11:21:21.261Z,61440.00
2019-02-24T11:22:21.210Z,59968.00
2019-02-24T11:23:21.731Z,61440.00
2019-02-24T11:24:21.511Z,62784.00
2019-02-24T11:25:21.192Z,62240.00
2019-02-24T11:26:21.191Z,61952.00
2019-02-24T11:27:21.155Z,62464.00
2019-02-24T11:28:21.152Z,63008.00
2019-02-24T11:29:21.230Z,62752.00
2019-02-24T11:30:21.198Z,61600.00
2019-02-24T11:31:21.129Z,57760.00
2019-02-24T11:32:21.284Z,56416.00
2019-02-24T11:33:21.112Z,57248.00
2019-02-24T11:34:21.284Z,60672.00
2019-02-24T11:35:21.057Z,62912.00
2019-02-24T11:36:21.113Z,63552.00
2019-02-24T11:37:21.089Z,64576.00
2019-02-24T11:38:21.055Z,63776.00
2019-02-24T11:39:21.171Z,61664.00
2019-02-24T11:40:21.010Z,61056.00
2019-02-24T11:41:21.010Z,61472.00
2019-02-24T11:42:20.991Z,63104.00
2019-02-24T11:43:21.094Z,63424.00
2019-02-24T11:44:20.969Z,62720.00
2019-02-24T11:45:20.956Z,61632.00
2019-02-24T11:46:20.967Z,59680.00
2019-02-24T11:47:20.991Z,59392.00
2019-02-24T11:48:20.953Z,61440.00
2019-02-24T11:49:20.993Z,61056.00
2019-02-24T11:50:20.908Z,59456.00
2019-02-24T11:51:20.916Z,57760.00
2019-02-24T11:52:20.904Z,55840.00
2019-02-24T11:53:20.907Z,57312.00
2019-02-24T11:54:20.864Z,59872.00
2019-02-24T11:55:20.920Z,60672.00
2019-02-24T11:56:20.836Z,60864.00
2019-02-24T11:57:26.113Z,59200.00
2019-02-24T11:58:20.854Z,57568.00
2019-02-24T11:59:20.819Z,57696.00
2019-02-24T12:00:20.848Z,55840.00
2019-02-24T12:01:20.838Z,56320.00
2019-02-24T12:02:20.784Z,53984.00
2019-02-24T12:03:20.940Z,52288.00
2019-02-24T12:04:20.763Z,53472.00
2019-02-24T12:05:20.761Z,57024.00
2019-02-24T12:06:20.829Z,57280.00
2019-02-24T12:07:20.704Z,55488.00
2019-02-24T12:08:20.706Z,53344.00
2019-02-24T12:09:20.701Z,53280.00
2019-02-24T12:10:20.701Z,55360.00
2019-02-24T12:11:20.683Z,57120.00
2019-02-24T12:12:20.790Z,56992.00
2019-02-24T12:13:20.794Z,55616.00
2019-02-24T12:14:20.643Z,53632.00
2019-02-24T12:15:20.766Z,51072.00
2019-02-24T12:16:20.612Z,52384.00
2019-02-24T12:17:20.635Z,56352.00
2019-02-24T12:18:20.694Z,55616.00
2019-02-24T12:19:20.765Z,54080.00
2019-02-24T12:20:20.588Z,54400.00
2019-02-24T12:21:20.565Z,54496.00
2019-02-24T12:22:20.542Z,55648.00
2019-02-24T12:23:20.561Z,55168.00
2019-02-24T12:24:20.566Z,55264.00
2019-02-24T12:25:20.652Z,55392.00
2019-02-24T12:26:20.512Z,53376.00
2019-02-24T12:27:20.502Z,53120.00
2019-02-24T12:28:20.478Z,54304.00
2019-02-24T12:29:20.494Z,54848.00
2019-02-24T12:30:20.482Z,53600.00